sensor_id;sensor_type;location;lat;lon;timestamp;pressure;altitude;pressure_sealevel;temperature;humidity
7832;BME280;3961;42.058;25.586;2023-04-02T00:00:35;63461.25;;;11.04;85.28
7832;BME280;3961;42.058;25.586;2023-04-02T00:05:29;63449.69;;;10.94;86.15
7832;BME280;3961;42.058;25.586;2023-04-02T00:08:00;63452.94;;;10.95;86.47
7832;BME280;3961;42.058;25.586;2023-04-02T00:10:38;63435.47;;;10.84;87.21
7832;BME280;3961;42.058;25.586;2023-04-02T00:15:37;63430.38;;;10.75;86.20
7832;BME280;3961;42.058;25.586;2023-04-02T00:18:04;63433.16;;;10.82;86.44
7832;BME280;3961;42.058;25.586;2023-04-02T00:20:34;63418.41;;;10.71;85.95
7832;BME280;3961;42.058;25.586;2023-04-02T00:23:03;63432.00;;;10.81;85.59
7832;BME280;3961;42.058;25.586;2023-04-02T00:25:33;63397.38;;;10.51;84.79
7832;BME280;3961;42.058;25.586;2023-04-02T00:28:02;63418.50;;;10.67;84.83
7832;BME280;3961;42.058;25.586;2023-04-02T00:30:28;63409.25;;;10.59;84.15
7832;BME280;3961;42.058;25.586;2023-04-02T00:32:54;63412.16;;;10.61;84.46
7832;BME280;3961;42.058;25.586;2023-04-02T00:35:27;63419.91;;;10.70;83.84
7832;BME280;3961;42.058;25.586;2023-04-02T00:37:54;63407.75;;;10.60;83.55
7832;BME280;3961;42.058;25.586;2023-04-02T00:40:29;63429.69;;;10.79;83.30
7832;BME280;3961;42.058;25.586;2023-04-02T00:42:58;63436.75;;;10.81;83.49
7832;BME280;3961;42.058;25.586;2023-04-02T00:45:31;63367.34;;;10.24;83.37
7832;BME280;3961;42.058;25.586;2023-04-02T00:48:15;63404.63;;;10.55;84.79
7832;BME280;3961;42.058;25.586;2023-04-02T00:50:45;63422.31;;;10.68;83.11
7832;BME280;3961;42.058;25.586;2023-04-02T00:53:30;63394.25;;;10.46;84.48
7832;BME280;3961;42.058;25.586;2023-04-02T00:56:00;63411.69;;;10.56;84.70
7832;BME280;3961;42.058;25.586;2023-04-02T01:00:55;63388.47;;;10.40;85.70
7832;BME280;3961;42.058;25.586;2023-04-02T01:06:12;63370.22;;;10.27;87.07
7832;BME280;3961;42.058;25.586;2023-04-02T01:08:54;63383.63;;;10.34;86.04
7832;BME280;3961;42.058;25.586;2023-04-02T01:22:56;63383.38;;;10.31;87.27
7832;BME280;3961;42.058;25.586;2023-04-02T01:25:43;63355.78;;;10.14;88.13
7832;BME280;3961;42.058;25.586;2023-04-02T01:28:23;63378.41;;;10.29;87.35
7832;BME280;3961;42.058;25.586;2023-04-02T01:30:52;63384.44;;;10.37;85.61
7832;BME280;3961;42.058;25.586;2023-04-02T01:33:21;63404.75;;;10.50;86.05
7832;BME280;3961;42.058;25.586;2023-04-02T01:35:54;63379.00;;;10.30;86.82
7832;BME280;3961;42.058;25.586;2023-04-02T01:38:26;63365.63;;;10.23;87.52
7832;BME280;3961;42.058;25.586;2023-04-02T01:46:41;63330.72;;;9.90;88.72
7832;BME280;3961;42.058;25.586;2023-04-02T01:49:16;63300.16;;;9.63;87.92
7832;BME280;3961;42.058;25.586;2023-04-02T01:51:45;63344.91;;;10.00;89.04
7832;BME280;3961;42.058;25.586;2023-04-02T01:54:12;63354.03;;;10.13;88.99
7832;BME280;3961;42.058;25.586;2023-04-02T01:56:40;63356.13;;;10.12;88.66
7832;BME280;3961;42.058;25.586;2023-04-02T01:59:07;63362.16;;;10.20;87.69
7832;BME280;3961;42.058;25.586;2023-04-02T02:01:41;63360.72;;;10.16;87.66
7832;BME280;3961;42.058;25.586;2023-04-02T02:04:11;63370.56;;;10.25;86.93
7832;BME280;3961;42.058;25.586;2023-04-02T02:06:38;63367.69;;;10.22;87.06
7832;BME280;3961;42.058;25.586;2023-04-02T02:09:06;63372.75;;;10.20;87.06
7832;BME280;3961;42.058;25.586;2023-04-02T02:11:33;63350.22;;;10.11;86.31
7832;BME280;3961;42.058;25.586;2023-04-02T02:14:05;63322.41;;;9.80;84.58
7832;BME280;3961;42.058;25.586;2023-04-02T02:16:37;63374.03;;;10.28;84.89
7832;BME280;3961;42.058;25.586;2023-04-02T02:24:30;63397.69;;;10.49;82.95
7832;BME280;3961;42.058;25.586;2023-04-02T02:29:57;63367.34;;;10.24;83.13
7832;BME280;3961;42.058;25.586;2023-04-02T02:32:28;63379.81;;;10.33;82.18
7832;BME280;3961;42.058;25.586;2023-04-02T02:35:03;63392.25;;;10.41;82.54
7832;BME280;3961;42.058;25.586;2023-04-02T02:37:39;63401.75;;;10.52;82.37
7832;BME280;3961;42.058;25.586;2023-04-02T02:40:11;63386.75;;;10.39;82.29
7832;BME280;3961;42.058;25.586;2023-04-02T02:42:46;63390.53;;;10.40;81.88
7832;BME280;3961;42.058;25.586;2023-04-02T02:45:16;63381.56;;;10.34;82.96
7832;BME280;3961;42.058;25.586;2023-04-02T02:47:44;63362.22;;;10.15;83.12
7832;BME280;3961;42.058;25.586;2023-04-02T02:50:27;63383.63;;;10.34;82.10
7832;BME280;3961;42.058;25.586;2023-04-02T02:52:58;63380.16;;;10.31;82.51
7832;BME280;3961;42.058;25.586;2023-04-02T02:55:32;63369.75;;;10.22;82.86
7832;BME280;3961;42.058;25.586;2023-04-02T03:00:37;63395.97;;;10.47;82.77
7832;BME280;3961;42.058;25.586;2023-04-02T03:03:07;63407.53;;;10.57;82.01
7832;BME280;3961;42.058;25.586;2023-04-02T03:05:34;63388.69;;;10.43;82.14
7832;BME280;3961;42.058;25.586;2023-04-02T03:08:01;63395.63;;;10.49;81.81
7832;BME280;3961;42.058;25.586;2023-04-02T03:10:53;63418.28;;;10.64;81.36
7832;BME280;3961;42.058;25.586;2023-04-02T03:13:24;63422.91;;;10.68;80.53
7832;BME280;3961;42.058;25.586;2023-04-02T03:16:03;63375.19;;;10.29;81.19
7832;BME280;3961;42.058;25.586;2023-04-02T03:21:32;63370.56;;;10.25;82.50
7832;BME280;3961;42.058;25.586;2023-04-02T03:29:25;63384.19;;;10.34;82.27
7832;BME280;3961;42.058;25.586;2023-04-02T03:32:16;63373.13;;;10.29;82.12
7832;BME280;3961;42.058;25.586;2023-04-02T03:34:55;63367.34;;;10.24;82.21
7832;BME280;3961;42.058;25.586;2023-04-02T03:45:38;63409.59;;;10.57;80.30
7832;BME280;3961;42.058;25.586;2023-04-02T03:48:26;63433.50;;;10.80;80.14
7832;BME280;3961;42.058;25.586;2023-04-02T03:51:03;63418.41;;;10.71;79.29
7832;BME280;3961;42.058;25.586;2023-04-02T03:53:42;63441.72;;;10.83;79.34
7832;BME280;3961;42.058;25.586;2023-04-02T03:56:29;63440.44;;;10.86;79.46
7832;BME280;3961;42.058;25.586;2023-04-02T03:59:30;63450.50;;;10.97;79.46
7832;BME280;3961;42.058;25.586;2023-04-02T04:04:28;63415.50;;;10.69;80.17
7832;BME280;3961;42.058;25.586;2023-04-02T04:06:57;63446.81;;;10.92;79.86
7832;BME280;3961;42.058;25.586;2023-04-02T04:09:36;63446.81;;;10.92;80.02
7832;BME280;3961;42.058;25.586;2023-04-02T04:14:48;63432.59;;;10.82;80.17
7832;BME280;3961;42.058;25.586;2023-04-02T04:17:31;63420.25;;;10.68;80.53
7832;BME280;3961;42.058;25.586;2023-04-02T04:22:31;63447.38;;;10.92;79.52
7832;BME280;3961;42.058;25.586;2023-04-02T04:25:00;63446.13;;;10.96;79.10
7832;BME280;3961;42.058;25.586;2023-04-02T04:27:44;63440.09;;;10.88;79.67
7832;BME280;3961;42.058;25.586;2023-04-02T04:30:23;63452.25;;;10.99;79.72
7832;BME280;3961;42.058;25.586;2023-04-02T04:32:55;63445.06;;;10.90;80.47
7832;BME280;3961;42.058;25.586;2023-04-02T04:35:29;63443.91;;;10.89;80.47
7832;BME280;3961;42.058;25.586;2023-04-02T04:38:06;63459.16;;;11.05;80.17
7832;BME280;3961;42.058;25.586;2023-04-02T04:40:47;63442.66;;;10.93;79.49
7832;BME280;3961;42.058;25.586;2023-04-02T04:46:12;63464.47;;;11.05;79.14
7832;BME280;3961;42.058;25.586;2023-04-02T04:48:50;63473.16;;;11.13;78.69
7832;BME280;3961;42.058;25.586;2023-04-02T04:54:14;63436.75;;;10.81;79.15
7832;BME280;3961;42.058;25.586;2023-04-02T04:56:44;63467.59;;;11.10;77.97
7832;BME280;3961;42.058;25.586;2023-04-02T04:59:23;63473.63;;;11.18;78.16
7832;BME280;3961;42.058;25.586;2023-04-02T05:02:03;63449.94;;;10.97;78.89
7832;BME280;3961;42.058;25.586;2023-04-02T05:04:38;63466.78;;;11.07;79.26
7832;BME280;3961;42.058;25.586;2023-04-02T05:07:17;63449.69;;;10.94;78.44
7832;BME280;3961;42.058;25.586;2023-04-02T05:12:16;63498.81;;;11.37;76.60
7832;BME280;3961;42.058;25.586;2023-04-02T05:14:50;63472.00;;;11.11;76.47
7832;BME280;3961;42.058;25.586;2023-04-02T05:17:24;63523.91;;;11.62;77.06
7832;BME280;3961;42.058;25.586;2023-04-02T05:19:58;63533.50;;;11.68;76.82
7832;BME280;3961;42.058;25.586;2023-04-02T05:22:35;63551.78;;;11.82;76.58
7832;BME280;3961;42.058;25.586;2023-04-02T05:32:59;63597.50;;;12.22;73.48
7832;BME280;3961;42.058;25.586;2023-04-02T05:35:36;63561.19;;;11.97;74.59
7832;BME280;3961;42.058;25.586;2023-04-02T05:38:06;63576.88;;;12.06;74.04
7832;BME280;3961;42.058;25.586;2023-04-02T05:40:39;63505.16;;;11.43;74.49
7832;BME280;3961;42.058;25.586;2023-04-02T05:43:08;63570.75;;;12.03;74.08
7832;BME280;3961;42.058;25.586;2023-04-02T05:45:36;63596.00;;;12.23;74.63
7832;BME280;3961;42.058;25.586;2023-04-02T05:48:15;63593.34;;;12.23;74.88
7832;BME280;3961;42.058;25.586;2023-04-02T05:50:44;63608.25;;;12.29;74.29
7832;BME280;3961;42.058;25.586;2023-04-02T05:53:25;63634.53;;;12.54;74.00
7832;BME280;3961;42.058;25.586;2023-04-02T05:58:25;63619.72;;;12.43;74.21
7832;BME280;3961;42.058;25.586;2023-04-02T06:03:30;63622.25;;;12.48;74.30
7832;BME280;3961;42.058;25.586;2023-04-02T06:06:04;63627.25;;;12.50;73.23
7832;BME280;3961;42.058;25.586;2023-04-02T06:08:46;63638.81;;;12.60;72.40
7832;BME280;3961;42.058;25.586;2023-04-02T06:11:22;63660.22;;;12.79;72.27
7832;BME280;3961;42.058;25.586;2023-04-02T06:13:49;63675.28;;;12.92;71.71
7832;BME280;3961;42.058;25.586;2023-04-02T06:16:15;63664.63;;;12.81;72.47
7832;BME280;3961;42.058;25.586;2023-04-02T06:18:42;63639.41;;;12.61;73.13
7832;BME280;3961;42.058;25.586;2023-04-02T06:21:11;63667.41;;;12.88;71.90
7832;BME280;3961;42.058;25.586;2023-04-02T06:23:54;63689.53;;;13.02;71.24
7832;BME280;3961;42.058;25.586;2023-04-02T06:26:38;63721.75;;;13.28;70.77
7832;BME280;3961;42.058;25.586;2023-04-02T06:31:41;63704.00;;;13.15;71.46
7832;BME280;3961;42.058;25.586;2023-04-02T06:34:17;63727.78;;;13.36;69.58
7832;BME280;3961;42.058;25.586;2023-04-02T06:36:44;63726.84;;;13.37;68.55
7832;BME280;3961;42.058;25.586;2023-04-02T06:39:17;63753.16;;;13.63;68.11
7832;BME280;3961;42.058;25.586;2023-04-02T06:41:44;63744.25;;;13.53;66.81
7832;BME280;3961;42.058;25.586;2023-04-02T06:44:16;63761.97;;;13.66;65.06
7832;BME280;3961;42.058;25.586;2023-04-02T06:46:48;63774.72;;;13.77;63.65
7832;BME280;3961;42.058;25.586;2023-04-02T06:49:41;63786.78;;;13.92;62.87
7832;BME280;3961;42.058;25.586;2023-04-02T06:52:18;63833.50;;;14.31;61.04
7832;BME280;3961;42.058;25.586;2023-04-02T06:54:46;63847.09;;;14.45;61.16
7832;BME280;3961;42.058;25.586;2023-04-02T06:57:12;63851.84;;;14.44;58.57
7832;BME280;3961;42.058;25.586;2023-04-02T06:59:38;63870.78;;;14.59;59.27
7832;BME280;3961;42.058;25.586;2023-04-02T07:02:15;63865.78;;;14.57;59.59
7832;BME280;3961;42.058;25.586;2023-04-02T07:04:42;63881.31;;;14.75;59.40
7832;BME280;3961;42.058;25.586;2023-04-02T07:07:08;63910.44;;;14.96;58.84
7832;BME280;3961;42.058;25.586;2023-04-02T07:09:33;63915.31;;;15.02;58.45
7832;BME280;3961;42.058;25.586;2023-04-02T07:11:59;63933.91;;;15.19;58.51
7832;BME280;3961;42.058;25.586;2023-04-02T07:14:24;63983.25;;;15.62;58.20
7832;BME280;3961;42.058;25.586;2023-04-02T07:16:50;63977.47;;;15.57;56.14
7832;BME280;3961;42.058;25.586;2023-04-02T07:19:21;63995.25;;;15.70;56.42
7832;BME280;3961;42.058;25.586;2023-04-02T07:21:47;63972.72;;;15.57;56.12
7832;BME280;3961;42.058;25.586;2023-04-02T07:24:13;64022.19;;;15.96;55.95
7832;BME280;3961;42.058;25.586;2023-04-02T07:26:39;64024.38;;;16.02;55.38
7832;BME280;3961;42.058;25.586;2023-04-02T07:29:13;64070.19;;;16.35;55.11
7832;BME280;3961;42.058;25.586;2023-04-02T07:31:39;63986.16;;;15.64;52.28
7832;BME280;3961;42.058;25.586;2023-04-02T07:34:05;64055.69;;;16.23;51.84
7832;BME280;3961;42.058;25.586;2023-04-02T07:36:31;64009.41;;;15.85;51.32
7832;BME280;3961;42.058;25.586;2023-04-02T07:38:57;64015.81;;;15.90;52.21
7832;BME280;3961;42.058;25.586;2023-04-02T07:41:22;64044.84;;;16.16;52.54
7832;BME280;3961;42.058;25.586;2023-04-02T07:43:48;64068.44;;;16.34;51.47
7832;BME280;3961;42.058;25.586;2023-04-02T07:46:14;64080.66;;;16.44;51.53
7832;BME280;3961;42.058;25.586;2023-04-02T07:48:43;64068.44;;;16.34;51.98
7832;BME280;3961;42.058;25.586;2023-04-02T07:51:24;64108.22;;;16.71;53.18
7832;BME280;3961;42.058;25.586;2023-04-02T07:53:51;64105.66;;;16.66;50.64
7832;BME280;3961;42.058;25.586;2023-04-02T07:56:20;64126.63;;;16.85;50.42
7832;BME280;3961;42.058;25.586;2023-04-02T07:58:46;64151.28;;;17.08;50.39
7832;BME280;3961;42.058;25.586;2023-04-02T08:01:18;64151.28;;;17.08;48.64
7832;BME280;3961;42.058;25.586;2023-04-02T08:03:44;64151.63;;;17.06;49.69
7832;BME280;3961;42.058;25.586;2023-04-02T08:06:09;64104.50;;;16.65;48.47
7832;BME280;3961;42.058;25.586;2023-04-02T08:08:36;64139.63;;;16.98;48.49
7832;BME280;3961;42.058;25.586;2023-04-02T08:11:02;64131.47;;;16.91;48.11
7832;BME280;3961;42.058;25.586;2023-04-02T08:13:27;64128.94;;;16.87;48.14
7832;BME280;3961;42.058;25.586;2023-04-02T08:15:53;64121.97;;;16.81;48.88
7832;BME280;3961;42.058;25.586;2023-04-02T08:18:21;64129.31;;;16.85;48.38
7832;BME280;3961;42.058;25.586;2023-04-02T08:20:47;64128.00;;;16.88;48.49
7832;BME280;3961;42.058;25.586;2023-04-02T08:23:14;64119.06;;;16.78;48.48
7832;BME280;3961;42.058;25.586;2023-04-02T08:25:41;64116.97;;;16.78;48.53
7832;BME280;3961;42.058;25.586;2023-04-02T08:28:07;64130.31;;;16.90;47.41
7832;BME280;3961;42.058;25.586;2023-04-02T08:30:32;64154.19;;;17.11;47.72
7832;BME280;3961;42.058;25.586;2023-04-02T08:32:58;64170.44;;;17.25;46.95
7832;BME280;3961;42.058;25.586;2023-04-02T08:35:23;64167.41;;;17.27;46.34
7832;BME280;3961;42.058;25.586;2023-04-02T08:37:49;64171.63;;;17.26;45.84
7832;BME280;3961;42.058;25.586;2023-04-02T08:46:15;64144.06;;;17.00;44.72
7832;BME280;3961;42.058;25.586;2023-04-02T08:48:48;64208.03;;;17.56;45.52
7832;BME280;3961;42.058;25.586;2023-04-02T08:51:24;64251.72;;;17.94;45.06
7832;BME280;3961;42.058;25.586;2023-04-02T08:53:52;64276.78;;;18.16;43.61
7832;BME280;3961;42.058;25.586;2023-04-02T08:58:53;64294.81;;;18.31;42.89
7832;BME280;3961;42.058;25.586;2023-04-02T09:03:49;64287.47;;;18.27;42.35
7832;BME280;3961;42.058;25.586;2023-04-02T09:06:18;64285.72;;;18.26;42.24
7832;BME280;3961;42.058;25.586;2023-04-02T09:08:46;64341.09;;;18.74;42.68
7832;BME280;3961;42.058;25.586;2023-04-02T09:11:34;64263.25;;;18.08;41.92
7832;BME280;3961;42.058;25.586;2023-04-02T09:14:08;64328.88;;;18.63;42.04
7832;BME280;3961;42.058;25.586;2023-04-02T09:16:45;64362.19;;;18.88;41.15
7832;BME280;3961;42.058;25.586;2023-04-02T09:19:24;64387.72;;;19.15;41.88
7832;BME280;3961;42.058;25.586;2023-04-02T09:24:27;64380.50;;;19.06;40.35
7832;BME280;3961;42.058;25.586;2023-04-02T09:26:53;64416.66;;;19.37;40.35
7832;BME280;3961;42.058;25.586;2023-04-02T09:34:36;64402.06;;;19.25;39.14
7832;BME280;3961;42.058;25.586;2023-04-02T09:37:08;64405.56;;;19.28;39.05
7832;BME280;3961;42.058;25.586;2023-04-02T09:39:38;64480.47;;;19.95;39.27
7832;BME280;3961;42.058;25.586;2023-04-02T09:42:25;64509.41;;;20.18;37.00
7832;BME280;3961;42.058;25.586;2023-04-02T09:45:11;64525.78;;;20.32;36.03
7832;BME280;3961;42.058;25.586;2023-04-02T09:47:38;64518.53;;;20.24;35.92
7832;BME280;3961;42.058;25.586;2023-04-02T09:50:26;64557.31;;;20.60;35.58
7832;BME280;3961;42.058;25.586;2023-04-02T09:52:53;64538.28;;;20.45;36.52
7832;BME280;3961;42.058;25.586;2023-04-02T09:55:24;64558.13;;;20.63;35.80
7832;BME280;3961;42.058;25.586;2023-04-02T09:58:14;64543.53;;;20.50;36.12
7832;BME280;3961;42.058;25.586;2023-04-02T10:00:51;64552.06;;;20.55;35.81
7832;BME280;3961;42.058;25.586;2023-04-02T10:03:23;64556.72;;;20.59;34.75
7832;BME280;3961;42.058;25.586;2023-04-02T10:08:29;64535.72;;;20.41;34.29
7832;BME280;3961;42.058;25.586;2023-04-02T10:10:58;64606.00;;;21.04;32.71
7832;BME280;3961;42.058;25.586;2023-04-02T10:13:33;64632.91;;;21.28;33.11
7832;BME280;3961;42.058;25.586;2023-04-02T10:16:07;64582.56;;;20.77;31.75
7832;BME280;3961;42.058;25.586;2023-04-02T10:21:12;64543.88;;;20.48;32.27
7832;BME280;3961;42.058;25.586;2023-04-02T10:23:40;64512.22;;;20.25;32.64
7832;BME280;3961;42.058;25.586;2023-04-02T10:26:18;64521.69;;;20.29;32.30
7832;BME280;3961;42.058;25.586;2023-04-02T10:31:56;64593.28;;;20.89;31.68
7832;BME280;3961;42.058;25.586;2023-04-02T10:37:00;64625.31;;;21.21;30.97
7832;BME280;3961;42.058;25.586;2023-04-02T10:39:42;64653.72;;;21.43;31.10
7832;BME280;3961;42.058;25.586;2023-04-02T10:50:03;64628.22;;;21.24;29.49
7832;BME280;3961;42.058;25.586;2023-04-02T10:52:48;64650.22;;;21.40;30.52
7832;BME280;3961;42.058;25.586;2023-04-02T10:55:20;64591.19;;;20.89;31.25
7832;BME280;3961;42.058;25.586;2023-04-02T10:57:50;64645.19;;;21.38;31.23
7832;BME280;3961;42.058;25.586;2023-04-02T11:00:21;64661.31;;;21.50;30.91
7832;BME280;3961;42.058;25.586;2023-04-02T11:05:42;64699.88;;;21.84;33.65
7832;BME280;3961;42.058;25.586;2023-04-02T11:08:21;64703.97;;;21.87;32.23
7832;BME280;3961;42.058;25.586;2023-04-02T11:11:20;64717.69;;;22.01;31.12
7832;BME280;3961;42.058;25.586;2023-04-02T11:13:54;64716.84;;;21.98;30.90
7832;BME280;3961;42.058;25.586;2023-04-02T11:16:22;64710.06;;;21.95;30.51
7832;BME280;3961;42.058;25.586;2023-04-02T11:21:53;64755.47;;;22.32;30.83
7832;BME280;3961;42.058;25.586;2023-04-02T11:26:48;64824.53;;;22.92;31.56
7832;BME280;3961;42.058;25.586;2023-04-02T11:31:42;64838.56;;;23.04;29.45
7832;BME280;3961;42.058;25.586;2023-04-02T11:37:10;64806.94;;;22.76;30.28
7832;BME280;3961;42.058;25.586;2023-04-02T11:39:55;64735.56;;;22.15;29.39
7832;BME280;3961;42.058;25.586;2023-04-02T11:42:28;64781.78;;;22.55;29.81
7832;BME280;3961;42.058;25.586;2023-04-02T11:44:55;64772.41;;;22.46;30.29
7832;BME280;3961;42.058;25.586;2023-04-02T11:47:24;64801.88;;;22.74;31.70
7832;BME280;3961;42.058;25.586;2023-04-02T11:49:58;64818.22;;;22.82;29.97
7832;BME280;3961;42.058;25.586;2023-04-02T11:52:33;64747.84;;;22.25;30.06
7832;BME280;3961;42.058;25.586;2023-04-02T11:57:56;64750.94;;;22.23;30.00
7832;BME280;3961;42.058;25.586;2023-04-02T12:05:41;64755.81;;;22.30;29.85
7832;BME280;3961;42.058;25.586;2023-04-02T12:11:12;64827.22;;;22.92;31.32
7832;BME280;3961;42.058;25.586;2023-04-02T12:16:05;64838.94;;;23.02;30.37
7832;BME280;3961;42.058;25.586;2023-04-02T12:18:32;64856.13;;;23.19;29.75
7832;BME280;3961;42.058;25.586;2023-04-02T12:20:58;64876.84;;;23.39;31.03
7832;BME280;3961;42.058;25.586;2023-04-02T12:23:29;64838.56;;;23.04;29.71
7832;BME280;3961;42.058;25.586;2023-04-02T12:26:21;64775.72;;;22.47;29.56
7832;BME280;3961;42.058;25.586;2023-04-02T12:28:44;64743.53;;;22.19;30.66
7832;BME280;3961;42.058;25.586;2023-04-02T12:31:12;64726.97;;;22.02;31.24
7832;BME280;3961;42.058;25.586;2023-04-02T12:33:39;64726.38;;;22.02;31.46
7832;BME280;3961;42.058;25.586;2023-04-02T12:38:51;64706.69;;;21.87;30.82
7832;BME280;3961;42.058;25.586;2023-04-02T12:41:28;64723.31;;;22.04;32.15
7832;BME280;3961;42.058;25.586;2023-04-02T12:44:01;64723.66;;;22.02;30.24
7832;BME280;3961;42.058;25.586;2023-04-02T12:46:28;64716.72;;;22.03;30.17
7832;BME280;3961;42.058;25.586;2023-04-02T12:49:04;64758.41;;;22.34;30.29
7832;BME280;3961;42.058;25.586;2023-04-02T12:51:31;64782.38;;;22.55;29.79
7832;BME280;3961;42.058;25.586;2023-04-02T12:53:57;64803.81;;;22.71;30.77
7832;BME280;3961;42.058;25.586;2023-04-02T12:56:23;64761.69;;;22.35;29.80
7832;BME280;3961;42.058;25.586;2023-04-02T12:58:56;64719.78;;;22.01;30.11
7832;BME280;3961;42.058;25.586;2023-04-02T13:01:24;64647.88;;;21.38;30.91
7832;BME280;3961;42.058;25.586;2023-04-02T13:04:06;64657.22;;;21.46;30.98
7832;BME280;3961;42.058;25.586;2023-04-02T13:06:35;64691.72;;;21.76;30.52
7832;BME280;3961;42.058;25.586;2023-04-02T13:09:04;64738.28;;;22.15;30.32
7832;BME280;3961;42.058;25.586;2023-04-02T13:11:40;64737.47;;;22.11;30.16
7832;BME280;3961;42.058;25.586;2023-04-02T13:14:15;64803.81;;;22.71;29.78
7832;BME280;3961;42.058;25.586;2023-04-02T13:16:41;64795.47;;;22.69;29.72
7832;BME280;3961;42.058;25.586;2023-04-02T13:21:43;64695.19;;;21.79;30.45
7832;BME280;3961;42.058;25.586;2023-04-02T13:24:20;64697.75;;;21.84;30.63
7832;BME280;3961;42.058;25.586;2023-04-02T13:26:47;64682.72;;;21.66;30.94
7832;BME280;3961;42.058;25.586;2023-04-02T13:31:41;64710.41;;;21.93;30.77
7832;BME280;3961;42.058;25.586;2023-04-02T13:34:07;64729.72;;;22.09;30.28
7832;BME280;3961;42.058;25.586;2023-04-02T13:36:32;64740.84;;;22.19;30.80
7832;BME280;3961;42.058;25.586;2023-04-02T13:38:58;64708.06;;;21.91;30.68
7832;BME280;3961;42.058;25.586;2023-04-02T13:41:26;64737.91;;;22.17;30.55
7832;BME280;3961;42.058;25.586;2023-04-02T13:43:53;64693.84;;;21.76;30.55
7832;BME280;3961;42.058;25.586;2023-04-02T13:46:22;64726.81;;;22.07;30.14
7832;BME280;3961;42.058;25.586;2023-04-02T13:48:49;64732.06;;;22.11;30.29
7832;BME280;3961;42.058;25.586;2023-04-02T13:51:16;64757.44;;;22.36;30.43
7832;BME280;3961;42.058;25.586;2023-04-02T13:53:45;64806.16;;;22.73;30.36
7832;BME280;3961;42.058;25.586;2023-04-02T13:56:11;64835.06;;;23.01;29.75
7832;BME280;3961;42.058;25.586;2023-04-02T13:58:37;64855.31;;;23.16;29.53
7832;BME280;3961;42.058;25.586;2023-04-02T14:01:03;64825.25;;;22.88;29.46
7832;BME280;3961;42.058;25.586;2023-04-02T14:03:28;64759.56;;;22.35;30.06
7832;BME280;3961;42.058;25.586;2023-04-02T14:08:53;64817.13;;;22.88;29.28
7832;BME280;3961;42.058;25.586;2023-04-02T14:11:36;64798.19;;;22.69;30.61
7832;BME280;3961;42.058;25.586;2023-04-02T14:14:19;64837.41;;;23.03;29.88
7832;BME280;3961;42.058;25.586;2023-04-02T14:17:10;64857.88;;;23.21;29.82
7832;BME280;3961;42.058;25.586;2023-04-02T14:20:14;64821.81;;;22.92;29.69
7832;BME280;3961;42.058;25.586;2023-04-02T14:33:44;64746.31;;;22.26;30.00
7832;BME280;3961;42.058;25.586;2023-04-02T14:41:14;64751.59;;;22.31;30.18
7832;BME280;3961;42.058;25.586;2023-04-02T14:43:51;64772.41;;;22.46;30.12
7832;BME280;3961;42.058;25.586;2023-04-02T14:46:18;64787.41;;;22.57;29.75
7832;BME280;3961;42.058;25.586;2023-04-02T14:56:54;64732.06;;;22.11;30.51
7832;BME280;3961;42.058;25.586;2023-04-02T15:02:20;64697.75;;;21.84;30.77
7832;BME280;3961;42.058;25.586;2023-04-02T15:04:58;64658.75;;;21.45;31.68
7832;BME280;3961;42.058;25.586;2023-04-02T15:07:30;64663.66;;;21.52;31.60
7832;BME280;3961;42.058;25.586;2023-04-02T15:10:23;64630.94;;;21.24;31.71
7832;BME280;3961;42.058;25.586;2023-04-02T15:12:52;64646.72;;;21.37;31.54
7832;BME280;3961;42.058;25.586;2023-04-02T15:18:14;64624.13;;;21.20;31.36
7832;BME280;3961;42.058;25.586;2023-04-02T15:28:40;64584.16;;;20.83;32.27
7832;BME280;3961;42.058;25.586;2023-04-02T15:31:12;64578.94;;;20.78;32.31
7832;BME280;3961;42.058;25.586;2023-04-02T15:33:50;64584.75;;;20.84;32.61
7832;BME280;3961;42.058;25.586;2023-04-02T15:36:45;64574.25;;;20.74;32.61
7832;BME280;3961;42.058;25.586;2023-04-02T15:39:20;64581.03;;;20.78;33.09
7832;BME280;3961;42.058;25.586;2023-04-02T15:44:25;64574.84;;;20.75;32.88
7832;BME280;3961;42.058;25.586;2023-04-02T15:47:00;64576.00;;;20.76;32.55
7832;BME280;3961;42.058;25.586;2023-04-02T15:49:40;64578.13;;;20.75;32.70
7832;BME280;3961;42.058;25.586;2023-04-02T15:52:27;64572.50;;;20.73;32.64
7832;BME280;3961;42.058;25.586;2023-04-02T15:57:52;64542.34;;;20.49;32.85
7832;BME280;3961;42.058;25.586;2023-04-02T16:00:35;64554.97;;;20.58;33.55
7832;BME280;3961;42.058;25.586;2023-04-02T16:03:19;64523.22;;;20.28;33.69
7832;BME280;3961;42.058;25.586;2023-04-02T16:11:32;64536.75;;;20.47;34.22
7832;BME280;3961;42.058;25.586;2023-04-02T16:16:39;64539.00;;;20.41;34.50
7832;BME280;3961;42.058;25.586;2023-04-02T16:19:34;64543.28;;;20.48;33.74
7832;BME280;3961;42.058;25.586;2023-04-02T16:24:41;64537.69;;;20.45;34.18
7832;BME280;3961;42.058;25.586;2023-04-02T16:35:31;64496.38;;;20.04;35.00
7832;BME280;3961;42.058;25.586;2023-04-02T16:41:10;64477.69;;;19.88;35.70
7832;BME280;3961;42.058;25.586;2023-04-02T16:43:54;64462.19;;;19.77;37.07
7832;BME280;3961;42.058;25.586;2023-04-02T16:49:25;64436.50;;;19.55;37.81
7832;BME280;3961;42.058;25.586;2023-04-02T17:02:40;64386.69;;;19.09;39.74
7832;BME280;3961;42.058;25.586;2023-04-02T17:10:23;64332.72;;;18.64;42.06
7832;BME280;3961;42.058;25.586;2023-04-02T17:15:38;64326.63;;;18.57;41.61
7832;BME280;3961;42.058;25.586;2023-04-02T17:18:15;64322.19;;;18.55;40.79
7832;BME280;3961;42.058;25.586;2023-04-02T17:20:41;64304.97;;;18.42;41.29
7832;BME280;3961;42.058;25.586;2023-04-02T17:23:10;64274.22;;;18.11;41.11
7832;BME280;3961;42.058;25.586;2023-04-02T17:25:45;64291.09;;;18.26;41.56
7832;BME280;3961;42.058;25.586;2023-04-02T17:28:15;64257.31;;;17.96;41.80
7832;BME280;3961;42.058;25.586;2023-04-02T17:30:48;64269.22;;;18.09;41.69
7832;BME280;3961;42.058;25.586;2023-04-02T17:33:17;64270.97;;;18.10;42.08
7832;BME280;3961;42.058;25.586;2023-04-02T17:41:12;64221.25;;;17.65;43.39
7832;BME280;3961;42.058;25.586;2023-04-02T17:43:45;64255.34;;;17.92;43.32
7832;BME280;3961;42.058;25.586;2023-04-02T17:46:34;64252.44;;;17.90;43.55
7832;BME280;3961;42.058;25.586;2023-04-02T18:00:10;64211.19;;;17.61;46.31
7832;BME280;3961;42.058;25.586;2023-04-02T18:05:15;64167.19;;;17.25;47.55